Terminal Aerodrome Forecast
Issued by NWS

Home | Current Version | Previous Version | Text Only | Print | Product List | Glossary On
Versions: 1 2 3 4 5 6 7 8 9 10 11 12 13 14
381
FTUS43 KLSX 010912 AAA
TAFSUS
TAF AMD
KSUS 010912Z 0109/0206 25007KT P6SM SKC
     FM011800 27010KT P6SM BKN035
     FM020000 26004KT P6SM FEW035 SCT150=

USA.gov is the U.S. government's official web portal to all federal, state and local government web resources and services.